Terminal Aerodrome Forecast
Issued by NWS Shreveport, LA

Home | Current Version | Previous Version | Text Only | Print | Product List | Glossary On
Versions: 1 2 3 4 5 6 7 8 9 10 11 12 13 14
000
FTUS44 KSHV 241140
TAFMLU
TAF
KMLU 241140Z 2412/2512 09004KT P6SM SKC
      TEMPO 2412/2413 3SM BR
     FM241600 17010KT P6SM SKC
     FM250000 17006KT P6SM SCT250
     FM250600 20006KT P6SM OVC250
     FM250900 21003KT 4SM BR OVC007=

USA.gov is the U.S. government's official web portal to all federal, state and local government web resources and services.